Weather History for Muscatine, IA

Change the Weather History Date:

Monday, November 11, 2013

  Actual Average Record
Temperature  
Mean Temperature 37 °F -  
Max Temperature 51 °F 48 °F 74 °F (1964)
Min Temperature 21 °F 31 °F 9 °F (1986)
Degree Days  
Heating Degree Days 28    
Moisture  
Dew Point 29 °F    
Average Humidity 70    
Maximum Humidity 93    
Minimum Humidity 50    
Precipitation  
Precipitation 0.00 in - - ()
Sea Level Pressure  
Sea Level Pressure 30.30 in    
Wind  
Wind Speed 10 mph (NNW)    
Max Wind Speed 21 mph    
Max Gust Speed 26 mph    
Visibility 9 miles    
Events Rain , Snow    
Averages and records for this station are not official NWS values.
T = Trace of Precipitation, MM = Missing Value Source: NWS Daily Summary

Daily Weather History Graph

Daily Weather History Graph

Search for Another Location

Airport:

Trip Planner

Search our weather history database for the weather conditions in past years. The results will help you decide how hot, cold, wet, or windy it might be!

Date:

Astronomy

Nov. 11, 2013 Rise Set
Actual Time 6:48 AM CST 4:48 PM CST
Civil Twilight 6:18 AM CST 5:17 PM CST
Nautical Twilight 5:45 AM CST 5:50 PM CST
Astronomical Twilight 5:13 AM CST 6:23 PM CST
Moon 1:32 PM CST (11/11) 12:29 AM CST (11/11)
Length of Visible Light 10h 58m
Length of Day
9h 59m
Waxing Gibbous, 66% of the Moon is Illuminated
Nov 11
Waxing Gibbous
Nov 17
Full
Nov 25
Last Quarter
Dec 2
New
Dec 9
First Quarter

Hourly Weather History & Observations

Time (CST) Temp. Windchill Dew Point Humidity Pressure Visibility Wind Dir Wind Speed Gust Speed Precip Events Conditions
12:15 AM 44.6 °F 41.4 °F 32.0 °F 61% 30.20 in 10.0 mi SSE 5.8 mph - N/A   Overcast
12:35 AM 44.6 °F 41.4 °F 33.8 °F 66% 30.19 in 10.0 mi SSE 5.8 mph - N/A   Overcast
1:35 AM 46.4 °F 44.3 °F 33.8 °F 62% 30.17 in 10.0 mi SSE 4.6 mph - N/A   Overcast
1:55 AM 46.4 °F 44.3 °F 33.8 °F 62% 30.17 in 10.0 mi SE 4.6 mph - N/A   Overcast
2:15 AM 46.4 °F 43.5 °F 33.8 °F 62% 30.15 in 10.0 mi SSE 5.8 mph - N/A   Overcast
2:35 AM 46.4 °F 42.9 °F 33.8 °F 62% 30.14 in 10.0 mi South 6.9 mph - N/A   Overcast
2:55 AM 48.2 °F - 32.0 °F 54% 30.14 in 10.0 mi SSW 6.9 mph - N/A   Overcast
3:15 AM 46.4 °F 41.1 °F 32.0 °F 57% 30.12 in 10.0 mi South 11.5 mph - N/A   Mostly Cloudy
3:35 AM 46.4 °F 42.9 °F 32.0 °F 57% 30.13 in 10.0 mi SSW 6.9 mph - N/A   Partly Cloudy
3:55 AM 46.4 °F 43.5 °F 32.0 °F 57% 30.13 in 10.0 mi SSW 5.8 mph - N/A   Partly Cloudy
4:15 AM 46.4 °F 44.3 °F 33.8 °F 62% 30.12 in 10.0 mi SSW 4.6 mph - N/A   Mostly Cloudy
4:35 AM 46.4 °F 42.4 °F 33.8 °F 62% 30.11 in 10.0 mi SSW 8.1 mph - N/A   Overcast
4:55 AM 48.2 °F - 33.8 °F 58% 30.11 in 10.0 mi SSW 8.1 mph - N/A   Overcast
5:15 AM 48.2 °F - 33.8 °F 58% 30.10 in 10.0 mi SSW 9.2 mph - N/A   Overcast
5:35 AM 48.2 °F - 33.8 °F 58% 30.09 in 10.0 mi SSW 8.1 mph - N/A   Overcast
5:55 AM 50.0 °F - 32.0 °F 50% 30.09 in 10.0 mi SW 11.5 mph - N/A   Overcast
6:15 AM 50.0 °F - 33.8 °F 54% 30.09 in 10.0 mi SW 10.4 mph - N/A   Overcast
6:35 AM 50.0 °F - 33.8 °F 54% 30.10 in 10.0 mi WSW 9.2 mph - N/A   Overcast
6:55 AM 50.0 °F - 33.8 °F 54% 30.11 in 10.0 mi West 10.4 mph - N/A   Overcast
7:15 AM 50.0 °F - 35.6 °F 58% 30.12 in 10.0 mi West 9.2 mph - N/A   Overcast
7:35 AM 51.8 °F - 35.6 °F 54% 30.13 in 10.0 mi WNW 15.0 mph 20.7 mph N/A   Overcast
7:55 AM 50.0 °F - 35.6 °F 58% 30.14 in 10.0 mi NW 9.2 mph 17.3 mph N/A   Overcast
8:15 AM 48.2 °F - 35.6 °F 62% 30.14 in 10.0 mi NW 9.2 mph - N/A   Overcast
8:35 AM 48.2 °F - 35.6 °F 62% 30.13 in 10.0 mi NW 4.6 mph - N/A   Overcast
8:55 AM 48.2 °F - 35.6 °F 62% 30.15 in 10.0 mi NNW 8.1 mph - N/A   Overcast
9:15 AM 48.2 °F - 35.6 °F 62% 30.16 in 10.0 mi NNW 12.7 mph - N/A   Overcast
9:35 AM 48.2 °F - 35.6 °F 62% 30.17 in 10.0 mi NNW 13.8 mph - N/A   Overcast
9:55 AM 46.4 °F 40.4 °F 33.8 °F 62% 30.18 in 10.0 mi North 13.8 mph - N/A   Overcast
10:15 AM 46.4 °F 39.2 °F 33.8 °F 62% 30.20 in 10.0 mi North 18.4 mph - N/A   Overcast
10:35 AM 46.4 °F 40.7 °F 33.8 °F 62% 30.20 in 10.0 mi North 12.7 mph 21.9 mph N/A   Overcast
10:55 AM 46.4 °F 40.4 °F 33.8 °F 62% 30.21 in 10.0 mi North 13.8 mph - N/A   Overcast
11:15 AM 46.4 °F 39.5 °F 33.8 °F 62% 30.22 in 10.0 mi North 17.3 mph - N/A   Overcast
11:35 AM 44.6 °F 37.4 °F 33.8 °F 66% 30.22 in 10.0 mi North 16.1 mph 24.2 mph N/A   Overcast
11:55 AM 44.6 °F 36.9 °F 33.8 °F 66% 30.22 in 10.0 mi North 18.4 mph - N/A   Overcast
12:15 PM 42.8 °F 34.8 °F 33.8 °F 70% 30.24 in 10.0 mi North 17.3 mph - N/A   Overcast
12:35 PM 42.8 °F 34.3 °F 33.8 °F 70% 30.24 in 10.0 mi North 19.6 mph 26.5 mph N/A   Overcast
12:55 PM 41.0 °F 32.2 °F 33.8 °F 76% 30.25 in 9.0 mi North 18.4 mph - N/A   Overcast
1:15 PM 39.2 °F 30.2 °F 32.0 °F 75% 30.27 in 10.0 mi North 17.3 mph 25.3 mph N/A   Light Drizzle
1:35 PM 39.2 °F 30.5 °F 32.0 °F 75% 30.28 in 10.0 mi North 16.1 mph 23.0 mph N/A   Overcast
1:55 PM 37.4 °F 26.9 °F 32.0 °F 81% 30.30 in 10.0 mi NNW 20.7 mph - N/A Rain Light Rain
2:15 PM 35.6 °F 24.8 °F 32.0 °F 87% 30.31 in 2.0 mi NNW 19.6 mph 26.5 mph N/A Snow Light Snow
2:35 PM 33.8 °F 23.2 °F 32.0 °F 93% 30.31 in 0.5 mi NNW 17.3 mph - N/A Snow Light Snow
2:55 PM 32.0 °F 20.1 °F 30.2 °F 93% 30.32 in 1.0 mi North 19.6 mph 26.5 mph N/A Snow Light Snow
3:15 PM 32.0 °F 20.5 °F 30.2 °F 93% 30.34 in 3.0 mi NNW 18.4 mph - N/A Snow Light Snow
3:35 PM 32.0 °F 21.6 °F 28.4 °F 87% 30.36 in 1.5 mi NNW 15.0 mph 25.3 mph N/A Snow Light Snow
3:55 PM 30.2 °F 19.3 °F 28.4 °F 93% 30.38 in 0.5 mi NNW 15.0 mph 21.9 mph N/A Snow Light Snow
4:15 PM 30.2 °F 21.9 °F 28.4 °F 93% 30.39 in 0.2 mi NNW 9.2 mph 17.3 mph N/A Snow Light Snow
4:35 PM 30.2 °F - 28.4 °F 93% 30.40 in 10.0 mi North - - N/A   Mostly Cloudy
4:55 PM 30.2 °F 20.8 °F 26.6 °F 86% 30.40 in 10.0 mi NNW 11.5 mph - N/A   Overcast
5:15 PM 32.0 °F 21.6 °F 24.8 °F 75% 30.42 in 10.0 mi North 15.0 mph 20.7 mph N/A   Mostly Cloudy
5:35 PM 30.2 °F 19.3 °F 24.8 °F 80% 30.43 in 10.0 mi NNW 15.0 mph 21.9 mph N/A   Overcast
5:55 PM 30.2 °F 19.3 °F 24.8 °F 80% 30.44 in 10.0 mi North 15.0 mph - N/A   Overcast
6:15 PM 30.2 °F 18.5 °F 23.0 °F 75% 30.45 in 10.0 mi North 17.3 mph - N/A   Mostly Cloudy
6:35 PM 30.2 °F 19.8 °F 23.0 °F 75% 30.47 in 10.0 mi North 13.8 mph 24.2 mph N/A   Scattered Clouds
6:55 PM 30.2 °F 18.9 °F 23.0 °F 75% 30.47 in 10.0 mi North 16.1 mph 23.0 mph N/A   Partly Cloudy
7:15 PM 28.4 °F 16.6 °F 21.2 °F 74% 30.49 in 10.0 mi North 16.1 mph 21.9 mph N/A   Partly Cloudy
7:35 PM 28.4 °F 17.0 °F 21.2 °F 74% 30.50 in 10.0 mi North 15.0 mph 21.9 mph N/A   Partly Cloudy
7:55 PM 28.4 °F 15.8 °F 21.2 °F 74% 30.51 in 10.0 mi North 18.4 mph - N/A   Clear
8:15 PM 28.4 °F 17.0 °F 21.2 °F 74% 30.52 in 10.0 mi North 15.0 mph 26.5 mph N/A   Clear
8:35 PM 28.4 °F 17.5 °F 21.2 °F 74% 30.54 in 10.0 mi North 13.8 mph 20.7 mph N/A   Clear
8:55 PM 26.6 °F 14.7 °F 19.4 °F 74% 30.55 in 10.0 mi North 15.0 mph - N/A   Clear
9:15 PM 26.6 °F 15.2 °F 19.4 °F 74% 30.56 in 10.0 mi North 13.8 mph - N/A   Clear
9:35 PM 26.6 °F 15.7 °F 19.4 °F 74% 30.58 in 10.0 mi North 12.7 mph - N/A   Clear
9:55 PM 24.8 °F 14.0 °F 17.6 °F 74% 30.59 in 10.0 mi NNW 11.5 mph - N/A   Clear
10:15 PM 24.8 °F 13.4 °F 17.6 °F 74% 30.60 in 10.0 mi NNW 12.7 mph - N/A   Clear
10:35 PM 23.0 °F 11.7 °F 17.6 °F 80% 30.61 in 10.0 mi NNW 11.5 mph - N/A   Clear
10:55 PM 23.0 °F 11.7 °F 15.8 °F 74% 30.62 in 10.0 mi NNW 11.5 mph - N/A   Clear
11:15 PM 23.0 °F 12.4 °F 15.8 °F 74% 30.62 in 10.0 mi NNW 10.4 mph - N/A   Clear
11:35 PM 23.0 °F 12.4 °F 15.8 °F 74% 30.63 in 10.0 mi NNW 10.4 mph - N/A   Clear
11:55 PM 21.2 °F 11.7 °F 15.8 °F 80% 30.64 in 10.0 mi NW 8.1 mph - N/A   Clear